Portada
METAR-TAF:

METAR-TAF

Aeroports :

Txità, Rússia

latitud: 52-05N, longitud: 113-29E, altitud: 685 m

Observació

L'informe es va fer fa 51 minuts, a les 23:00 UTC
Vent calma
Temperatura -22°C
Humitat 76%
Pressió 1011 hPa
Visibilitat 10 km o més

METAR: UIAA 082300Z 00000MPS 9999 NSC M22/M25 Q1011 R29/490145 NOSIG RMK QFE700/0934

Hora: 08:51 (23:51 UTC)

Pronòstic

L'informe es va fer fa 51 minuts, a les 23:00 UTC
Pronòstic vàlid del 09 a les 00 UTC al 09 a les 24 UTC
Vent 6 kt del Oest/Nord-Oest amb ràfegues de 16 kt
Visibilitat 10 km o més
Núvols disperses a una alçada de 4000 ft, Cumulonimbus.
Temporalment
l' 09 a les 12 UTC al 09 a les 24 UTC
Visibilitat: 3100 m
xàfecs de neu, boirina

TAF: UIAA 082300Z 0900/0924 29003G08MPS 9999 SCT040CB TEMPO 0912/0924 3100 -SHSN BR

Observacions i pronòstics meteorològics de més de 4000 aeroports (METAR i TAF).

Les estacions disponibles són els punts grocs i vermells al mapa.

Posi el ratolí al punt desitjat per veure el nom de l'estació.

Feu clic per veure les observacions i els pronòstics meteorològics.

Per canviar el mapa: feu clic els botons verds amb una creu de color negre per apropar; al botó verd amb un guió per allunyar la imatge; o en les fletxes verdes per a mapes adjacents.


METAR-TAF: